sensor_id;sensor_type;location;lat;lon;timestamp;pressure;altitude;pressure_sealevel;temperature;humidity
42621;BME280;28252;53.336;-6.298;2023-01-26T00:00:17;103053.34;;;23.08;86.54
42621;BME280;28252;53.336;-6.298;2023-01-26T00:00:54;103053.47;;;23.06;87.67
42621;BME280;28252;53.336;-6.298;2023-01-26T00:01:34;103053.56;;;23.05;87.28
42621;BME280;28252;53.336;-6.298;2023-01-26T00:02:07;103048.97;;;23.05;87.03
42621;BME280;28252;53.336;-6.298;2023-01-26T00:02:40;103052.63;;;23.06;87.13
42621;BME280;28252;53.336;-6.298;2023-01-26T00:03:11;103043.56;;;23.05;86.87
42621;BME280;28252;53.336;-6.298;2023-01-26T00:03:47;103045.41;;;23.05;86.77
42621;BME280;28252;53.336;-6.298;2023-01-26T00:04:19;103047.28;;;23.04;87.02
42621;BME280;28252;53.336;-6.298;2023-01-26T00:04:52;103052.63;;;23.06;86.64
42621;BME280;28252;53.336;-6.298;2023-01-26T00:05:25;103052.72;;;23.04;86.77
42621;BME280;28252;53.336;-6.298;2023-01-26T00:06:02;103053.56;;;23.05;86.26
42621;BME280;28252;53.336;-6.298;2023-01-26T00:06:36;103062.47;;;23.07;86.83
42621;BME280;28252;53.336;-6.298;2023-01-26T00:07:09;103057.94;;;23.07;86.87
42621;BME280;28252;53.336;-6.298;2023-01-26T00:07:49;103067.06;;;23.06;86.83
42621;BME280;28252;53.336;-6.298;2023-01-26T00:08:27;103069.78;;;23.06;87.10
42621;BME280;28252;53.336;-6.298;2023-01-26T00:09:02;103070.63;;;23.07;86.77
42621;BME280;28252;53.336;-6.298;2023-01-26T00:09:35;103069.88;;;23.05;87.61
42621;BME280;28252;53.336;-6.298;2023-01-26T00:10:09;103072.13;;;23.00;87.57
42621;BME280;28252;53.336;-6.298;2023-01-26T00:10:41;103076.59;;;23.01;88.01
42621;BME280;28252;53.336;-6.298;2023-01-26T00:11:22;103076.97;;;22.96;88.99
42621;BME280;28252;53.336;-6.298;2023-01-26T00:11:54;103072.38;;;22.97;87.78
42621;BME280;28252;53.336;-6.298;2023-01-26T00:12:27;103070.56;;;22.97;87.75
42621;BME280;28252;53.336;-6.298;2023-01-26T00:13:05;103071.66;;;22.94;87.98
42621;BME280;28252;53.336;-6.298;2023-01-26T00:13:41;103067.25;;;22.93;87.89
42621;BME280;28252;53.336;-6.298;2023-01-26T00:14:12;103068.34;;;22.91;88.75
42621;BME280;28252;53.336;-6.298;2023-01-26T00:14:48;103069.19;;;22.91;88.71
42621;BME280;28252;53.336;-6.298;2023-01-26T00:15:26;103068.59;;;22.88;89.46
42621;BME280;28252;53.336;-6.298;2023-01-26T00:16:02;103065.75;;;22.89;88.29
42621;BME280;28252;53.336;-6.298;2023-01-26T00:16:33;103062.31;;;22.87;88.59
42621;BME280;28252;53.336;-6.298;2023-01-26T00:17:06;103066.91;;;22.87;88.16
42621;BME280;28252;53.336;-6.298;2023-01-26T00:17:37;103063.28;;;22.86;89.02
42621;BME280;28252;53.336;-6.298;2023-01-26T00:18:09;103066.00;;;22.86;88.87
42621;BME280;28252;53.336;-6.298;2023-01-26T00:18:47;103066.31;;;22.83;88.43
42621;BME280;28252;53.336;-6.298;2023-01-26T00:19:18;103072.84;;;22.81;89.02
42621;BME280;28252;53.336;-6.298;2023-01-26T00:19:49;103068.84;;;22.85;88.32
42621;BME280;28252;53.336;-6.298;2023-01-26T00:20:22;103062.56;;;22.84;88.64
42621;BME280;28252;53.336;-6.298;2023-01-26T00:20:57;103070.72;;;22.84;88.38
42621;BME280;28252;53.336;-6.298;2023-01-26T00:21:31;103072.97;;;22.79;89.36
42621;BME280;28252;53.336;-6.298;2023-01-26T00:22:02;103072.25;;;22.77;89.07
42621;BME280;28252;53.336;-6.298;2023-01-26T00:22:33;103073.94;;;22.78;88.47
42621;BME280;28252;53.336;-6.298;2023-01-26T00:23:04;103072.13;;;22.79;88.47
42621;BME280;28252;53.336;-6.298;2023-01-26T00:23:35;103071.09;;;22.80;88.17
42621;BME280;28252;53.336;-6.298;2023-01-26T00:24:09;103069.41;;;22.79;88.84
42621;BME280;28252;53.336;-6.298;2023-01-26T00:24:43;103068.50;;;22.78;88.04
42621;BME280;28252;53.336;-6.298;2023-01-26T00:25:17;103070.25;;;22.79;88.26
42621;BME280;28252;53.336;-6.298;2023-01-26T00:25:50;103072.25;;;22.77;88.74
42621;BME280;28252;53.336;-6.298;2023-01-26T00:26:28;103076.81;;;22.77;88.80
42621;BME280;28252;53.336;-6.298;2023-01-26T00:26:59;103076.81;;;22.77;88.71
42621;BME280;28252;53.336;-6.298;2023-01-26T00:27:32;103071.53;;;22.75;88.65
42621;BME280;28252;53.336;-6.298;2023-01-26T00:28:07;103072.25;;;22.77;88.57
42621;BME280;28252;53.336;-6.298;2023-01-26T00:28:40;103075.94;;;22.76;88.96
42621;BME280;28252;53.336;-6.298;2023-01-26T00:29:14;103074.22;;;22.75;88.46
42621;BME280;28252;53.336;-6.298;2023-01-26T00:29:45;103069.91;;;22.72;88.94
42621;BME280;28252;53.336;-6.298;2023-01-26T00:30:18;103069.06;;;22.72;88.67
42621;BME280;28252;53.336;-6.298;2023-01-26T00:30:51;103068.19;;;22.71;88.53
42621;BME280;28252;53.336;-6.298;2023-01-26T00:31:23;103063.63;;;22.72;88.35
42621;BME280;28252;53.336;-6.298;2023-01-26T00:31:56;103063.63;;;22.72;88.38
42621;BME280;28252;53.336;-6.298;2023-01-26T00:32:30;103058.44;;;22.69;88.82
42621;BME280;28252;53.336;-6.298;2023-01-26T00:33:05;103052.28;;;22.67;88.74
42621;BME280;28252;53.336;-6.298;2023-01-26T00:33:36;103053.50;;;22.63;89.26
42621;BME280;28252;53.336;-6.298;2023-01-26T00:34:10;103056.22;;;22.63;89.36
42621;BME280;28252;53.336;-6.298;2023-01-26T00:34:46;103055.25;;;22.64;89.39
42621;BME280;28252;53.336;-6.298;2023-01-26T00:35:17;103051.56;;;22.65;88.81
42621;BME280;28252;53.336;-6.298;2023-01-26T00:35:53;103055.25;;;22.64;88.93
42621;BME280;28252;53.336;-6.298;2023-01-26T00:36:29;103048.06;;;22.63;88.80
42621;BME280;28252;53.336;-6.298;2023-01-26T00:37:00;103049.81;;;22.64;88.66
42621;BME280;28252;53.336;-6.298;2023-01-26T00:37:32;103048.06;;;22.63;88.32
42621;BME280;28252;53.336;-6.298;2023-01-26T00:38:03;103049.81;;;22.64;88.57
42621;BME280;28252;53.336;-6.298;2023-01-26T00:38:34;103052.78;;;22.61;88.66
42621;BME280;28252;53.336;-6.298;2023-01-26T00:39:10;103051.22;;;22.58;88.89
42621;BME280;28252;53.336;-6.298;2023-01-26T00:39:45;103056.75;;;22.56;88.65
42621;BME280;28252;53.336;-6.298;2023-01-26T00:40:16;103057.75;;;22.55;89.09
42621;BME280;28252;53.336;-6.298;2023-01-26T00:40:47;103062.31;;;22.55;89.01
42621;BME280;28252;53.336;-6.298;2023-01-26T00:42:30;103065.16;;;22.53;89.00
42621;BME280;28252;53.336;-6.298;2023-01-26T00:43:03;103069.63;;;22.54;89.58
42621;BME280;28252;53.336;-6.298;2023-01-26T00:43:39;103057.75;;;22.55;89.46
42621;BME280;28252;53.336;-6.298;2023-01-26T00:44:13;103064.44;;;22.51;90.42
42621;BME280;28252;53.336;-6.298;2023-01-26T00:44:47;103059.97;;;22.50;89.55
42621;BME280;28252;53.336;-6.298;2023-01-26T00:45:22;103058.16;;;22.51;89.28
42621;BME280;28252;53.336;-6.298;2023-01-26T00:45:55;103055.28;;;22.52;89.35
42621;BME280;28252;53.336;-6.298;2023-01-26T00:46:26;103054.31;;;22.53;88.90
42621;BME280;28252;53.336;-6.298;2023-01-26T00:47:00;103055.28;;;22.52;89.09
42621;BME280;28252;53.336;-6.298;2023-01-26T00:47:35;103050.25;;;22.48;89.50
42621;BME280;28252;53.336;-6.298;2023-01-26T00:48:06;103050.25;;;22.48;89.43
42621;BME280;28252;53.336;-6.298;2023-01-26T00:48:42;103055.69;;;22.48;89.56
42621;BME280;28252;53.336;-6.298;2023-01-26T00:49:13;103054.81;;;22.47;89.46
42621;BME280;28252;53.336;-6.298;2023-01-26T00:49:49;103067.41;;;22.48;89.49
42621;BME280;28252;53.336;-6.298;2023-01-26T00:50:24;103062.94;;;22.47;89.65
42621;BME280;28252;53.336;-6.298;2023-01-26T00:52:06;103065.66;;;22.47;89.43
42621;BME280;28252;53.336;-6.298;2023-01-26T00:52:38;103067.53;;;22.47;89.54
42621;BME280;28252;53.336;-6.298;2023-01-26T00:53:09;103071.97;;;22.48;89.40
42621;BME280;28252;53.336;-6.298;2023-01-26T00:53:43;103070.25;;;22.47;89.46
42621;BME280;28252;53.336;-6.298;2023-01-26T00:54:18;103070.25;;;22.47;89.43
42621;BME280;28252;53.336;-6.298;2023-01-26T00:54:52;103070.38;;;22.45;89.57
42621;BME280;28252;53.336;-6.298;2023-01-26T00:55:23;103070.63;;;22.42;90.23
42621;BME280;28252;53.336;-6.298;2023-01-26T00:55:56;103066.19;;;22.41;89.80
42621;BME280;28252;53.336;-6.298;2023-01-26T00:56:28;103067.16;;;22.40;90.43
42621;BME280;28252;53.336;-6.298;2023-01-26T00:57:05;103061.13;;;22.36;90.66
42621;BME280;28252;53.336;-6.298;2023-01-26T00:57:38;103059.41;;;22.35;90.24
42621;BME280;28252;53.336;-6.298;2023-01-26T00:58:11;103060.28;;;22.36;89.88
42621;BME280;28252;53.336;-6.298;2023-01-26T00:58:43;103050.41;;;22.35;90.23
42621;BME280;28252;53.336;-6.298;2023-01-26T00:59:19;103056.69;;;22.35;90.11
42621;BME280;28252;53.336;-6.298;2023-01-26T00:59:50;103052.13;;;22.36;90.11
42621;BME280;28252;53.336;-6.298;2023-01-26T01:00:26;103044.13;;;22.34;90.27
42621;BME280;28252;53.336;-6.298;2023-01-26T01:00:58;103047.81;;;22.33;90.61
42621;BME280;28252;53.336;-6.298;2023-01-26T01:01:34;103048.69;;;22.34;90.37
42621;BME280;28252;53.336;-6.298;2023-01-26T01:02:12;103044.25;;;22.33;90.08
42621;BME280;28252;53.336;-6.298;2023-01-26T01:02:48;103048.94;;;22.31;90.59
42621;BME280;28252;53.336;-6.298;2023-01-26T01:03:25;103039.41;;;22.25;90.36
42621;BME280;28252;53.336;-6.298;2023-01-26T01:04:01;103042.28;;;22.24;91.27
42621;BME280;28252;53.336;-6.298;2023-01-26T01:04:34;103045.97;;;22.23;90.67
42621;BME280;28252;53.336;-6.298;2023-01-26T01:05:08;103042.28;;;22.24;90.62
42621;BME280;28252;53.336;-6.298;2023-01-26T01:05:42;103039.69;;;22.22;90.87
42621;BME280;28252;53.336;-6.298;2023-01-26T01:06:17;103045.34;;;22.19;91.62
42621;BME280;28252;53.336;-6.298;2023-01-26T01:06:50;103047.06;;;22.20;90.77
42621;BME280;28252;53.336;-6.298;2023-01-26T01:07:26;103046.09;;;22.21;91.07
42621;BME280;28252;53.336;-6.298;2023-01-26T01:07:59;103040.78;;;22.19;91.36
42621;BME280;28252;53.336;-6.298;2023-01-26T01:08:35;103039.31;;;22.15;91.56
42621;BME280;28252;53.336;-6.298;2023-01-26T01:09:10;103028.97;;;22.09;91.36
42621;BME280;28252;53.336;-6.298;2023-01-26T01:09:44;103033.53;;;22.09;91.87
42621;BME280;28252;53.336;-6.298;2023-01-26T01:10:20;103030.69;;;22.10;91.50
42621;BME280;28252;53.336;-6.298;2023-01-26T01:11:06;103031.44;;;22.12;91.58
42621;BME280;28252;53.336;-6.298;2023-01-26T01:11:40;103029.44;;;22.14;91.08
42621;BME280;28252;53.336;-6.298;2023-01-26T01:12:13;103022.16;;;22.15;91.49
42621;BME280;28252;53.336;-6.298;2023-01-26T01:12:44;103020.19;;;22.17;91.02
42621;BME280;28252;53.336;-6.298;2023-01-26T01:13:18;103031.91;;;22.17;90.71
42621;BME280;28252;53.336;-6.298;2023-01-26T01:13:54;103030.16;;;22.16;90.14
42621;BME280;28252;53.336;-6.298;2023-01-26T01:14:27;103021.28;;;22.14;90.89
42621;BME280;28252;53.336;-6.298;2023-01-26T01:15:00;103020.31;;;22.15;90.61
42621;BME280;28252;53.336;-6.298;2023-01-26T01:15:34;103025.63;;;22.17;90.58
42621;BME280;28252;53.336;-6.298;2023-01-26T01:16:09;103032.16;;;22.14;90.68
42621;BME280;28252;53.336;-6.298;2023-01-26T01:16:44;103032.53;;;22.10;91.96
42621;BME280;28252;53.336;-6.298;2023-01-26T01:17:18;103029.94;;;22.08;91.43
42621;BME280;28252;53.336;-6.298;2023-01-26T01:17:51;103036.13;;;22.10;90.80
42621;BME280;28252;53.336;-6.298;2023-01-26T01:18:32;103035.13;;;22.11;91.29
42621;BME280;28252;53.336;-6.298;2023-01-26T01:19:05;103032.81;;;22.07;91.12
42621;BME280;28252;53.336;-6.298;2023-01-26T01:19:39;103034.88;;;22.03;91.16
42621;BME280;28252;53.336;-6.298;2023-01-26T01:20:13;103046.63;;;22.04;91.49
42621;BME280;28252;53.336;-6.298;2023-01-26T01:20:47;103047.47;;;22.04;91.02
42621;BME280;28252;53.336;-6.298;2023-01-26T01:21:20;103046.00;;;22.00;91.70
42621;BME280;28252;53.336;-6.298;2023-01-26T01:21:52;103047.97;;;21.98;92.19
42621;BME280;28252;53.336;-6.298;2023-01-26T01:22:25;103045.25;;;21.98;92.06
42621;BME280;28252;53.336;-6.298;2023-01-26T01:22:56;103041.56;;;21.99;91.44
42621;BME280;28252;53.336;-6.298;2023-01-26T01:23:30;103045.13;;;21.99;91.21
42621;BME280;28252;53.336;-6.298;2023-01-26T01:24:01;103044.41;;;21.97;91.65
42621;BME280;28252;53.336;-6.298;2023-01-26T01:24:32;103040.81;;;21.97;91.63
42621;BME280;28252;53.336;-6.298;2023-01-26T01:25:07;103043.53;;;21.97;91.55
42621;BME280;28252;53.336;-6.298;2023-01-26T01:25:40;103038.84;;;21.99;91.15
42621;BME280;28252;53.336;-6.298;2023-01-26T01:26:11;103037.09;;;21.98;91.55
42621;BME280;28252;53.336;-6.298;2023-01-26T01:26:47;103037.38;;;21.95;91.93
42621;BME280;28252;53.336;-6.298;2023-01-26T01:27:20;103041.91;;;21.94;91.54
42621;BME280;28252;53.336;-6.298;2023-01-26T01:27:51;103041.81;;;21.96;91.36
42621;BME280;28252;53.336;-6.298;2023-01-26T01:28:24;103048.97;;;21.97;90.99
42621;BME280;28252;53.336;-6.298;2023-01-26T01:28:58;103044.50;;;21.96;91.21
42621;BME280;28252;53.336;-6.298;2023-01-26T01:29:34;103045.41;;;21.96;91.40
42621;BME280;28252;53.336;-6.298;2023-01-26T01:30:06;103050.06;;;21.94;91.50
42621;BME280;28252;53.336;-6.298;2023-01-26T01:30:40;103048.22;;;21.95;91.22
42621;BME280;28252;53.336;-6.298;2023-01-26T01:31:14;103042.81;;;21.95;90.84
42621;BME280;28252;53.336;-6.298;2023-01-26T01:31:49;103041.81;;;21.96;91.36
42621;BME280;28252;53.336;-6.298;2023-01-26T01:32:22;103046.38;;;21.95;90.93
42621;BME280;28252;53.336;-6.298;2023-01-26T01:32:54;103037.63;;;21.92;90.84
42621;BME280;28252;53.336;-6.298;2023-01-26T01:33:27;103035.75;;;21.92;90.83
42621;BME280;28252;53.336;-6.298;2023-01-26T01:34:03;103041.31;;;21.91;91.05
42621;BME280;28252;53.336;-6.298;2023-01-26T01:34:36;103037.88;;;21.89;91.60
42621;BME280;28252;53.336;-6.298;2023-01-26T01:35:10;103038.84;;;21.88;91.34
42621;BME280;28252;53.336;-6.298;2023-01-26T01:36:03;103040.59;;;21.89;91.11
42621;BME280;28252;53.336;-6.298;2023-01-26T01:36:39;103039.59;;;21.90;91.48
42621;BME280;28252;53.336;-6.298;2023-01-26T01:37:14;103042.31;;;21.90;91.08
42621;BME280;28252;53.336;-6.298;2023-01-26T01:37:48;103042.31;;;21.90;91.20
42621;BME280;28252;53.336;-6.298;2023-01-26T01:38:19;103045.03;;;21.90;91.50
42621;BME280;28252;53.336;-6.298;2023-01-26T01:38:51;103046.00;;;21.89;91.22
42621;BME280;28252;53.336;-6.298;2023-01-26T01:39:26;103044.03;;;21.91;91.31
42621;BME280;28252;53.336;-6.298;2023-01-26T01:40:03;103045.03;;;21.90;91.23
42621;BME280;28252;53.336;-6.298;2023-01-26T01:40:41;103048.97;;;21.86;91.85
42621;BME280;28252;53.336;-6.298;2023-01-26T01:41:13;103041.84;;;21.85;91.55
42621;BME280;28252;53.336;-6.298;2023-01-26T01:41:51;103043.66;;;21.84;91.54
42621;BME280;28252;53.336;-6.298;2023-01-26T01:42:27;103047.25;;;21.85;91.15
42621;BME280;28252;53.336;-6.298;2023-01-26T01:42:58;103043.78;;;21.82;91.32
42621;BME280;28252;53.336;-6.298;2023-01-26T01:43:32;103048.47;;;21.80;91.45
42621;BME280;28252;53.336;-6.298;2023-01-26T01:45:16;103044.91;;;21.80;91.66
42621;BME280;28252;53.336;-6.298;2023-01-26T01:45:43;103045.75;;;21.80;91.90
42621;BME280;28252;53.336;-6.298;2023-01-26T01:46:21;103053.16;;;21.78;91.79
42621;BME280;28252;53.336;-6.298;2023-01-26T01:47:02;103056.84;;;21.77;91.89
42621;BME280;28252;53.336;-6.298;2023-01-26T01:47:36;103046.88;;;21.78;91.79
42621;BME280;28252;53.336;-6.298;2023-01-26T01:48:17;103049.47;;;21.79;91.60
42621;BME280;28252;53.336;-6.298;2023-01-26T01:51:04;103048.47;;;21.80;90.90
42621;BME280;28252;53.336;-6.298;2023-01-26T01:51:42;103046.63;;;21.81;91.18
42621;BME280;28252;53.336;-6.298;2023-01-26T01:52:24;103047.50;;;21.81;91.08
42621;BME280;28252;53.336;-6.298;2023-01-26T01:53:01;103044.91;;;21.80;91.23
42621;BME280;28252;53.336;-6.298;2023-01-26T01:53:38;103039.47;;;21.80;91.14
42621;BME280;28252;53.336;-6.298;2023-01-26T01:54:11;103043.16;;;21.79;91.23
42621;BME280;28252;53.336;-6.298;2023-01-26T01:54:47;103031.47;;;21.78;91.05
42621;BME280;28252;53.336;-6.298;2023-01-26T01:55:20;103046.00;;;21.77;91.17
42621;BME280;28252;53.336;-6.298;2023-01-26T01:55:59;103032.44;;;21.77;91.43
42621;BME280;28252;53.336;-6.298;2023-01-26T01:56:31;103029.00;;;21.75;91.43
42621;BME280;28252;53.336;-6.298;2023-01-26T01:57:06;103029.22;;;21.72;90.85
42621;BME280;28252;53.336;-6.298;2023-01-26T01:57:49;103032.97;;;21.71;91.15
42621;BME280;28252;53.336;-6.298;2023-01-26T01:58:23;103027.53;;;21.71;91.40
42621;BME280;28252;53.336;-6.298;2023-01-26T01:59:00;103029.22;;;21.72;91.03
42621;BME280;28252;53.336;-6.298;2023-01-26T01:59:37;103030.25;;;21.71;91.62
42621;BME280;28252;53.336;-6.298;2023-01-26T02:00:13;103033.94;;;21.70;91.25
42621;BME280;28252;53.336;-6.298;2023-01-26T02:00:47;103037.66;;;21.69;91.70
42621;BME280;28252;53.336;-6.298;2023-01-26T02:01:21;103041.34;;;21.68;92.02
42621;BME280;28252;53.336;-6.298;2023-01-26T02:01:52;103034.16;;;21.67;91.66
42621;BME280;28252;53.336;-6.298;2023-01-26T02:02:23;103034.16;;;21.67;91.79
42621;BME280;28252;53.336;-6.298;2023-01-26T02:03:15;103032.47;;;21.66;91.40
42621;BME280;28252;53.336;-6.298;2023-01-26T02:03:51;103035.28;;;21.64;91.64
42621;BME280;28252;53.336;-6.298;2023-01-26T02:04:28;103032.69;;;21.63;91.56
42621;BME280;28252;53.336;-6.298;2023-01-26T02:05:04;103031.72;;;21.64;91.27
42621;BME280;28252;53.336;-6.298;2023-01-26T02:06:21;103031.84;;;21.62;91.78
42621;BME280;28252;53.336;-6.298;2023-01-26T02:07:51;103025.53;;;21.62;91.69
42621;BME280;28252;53.336;-6.298;2023-01-26T02:08:46;103031.84;;;21.62;91.14
42621;BME280;28252;53.336;-6.298;2023-01-26T02:09:21;103025.53;;;21.62;91.19
42621;BME280;28252;53.336;-6.298;2023-01-26T02:10:18;103029.13;;;21.62;91.09
42621;BME280;28252;53.336;-6.298;2023-01-26T02:10:51;103031.19;;;21.59;91.74
42621;BME280;28252;53.336;-6.298;2023-01-26T02:11:27;103036.63;;;21.59;91.41
42621;BME280;28252;53.336;-6.298;2023-01-26T02:12:07;103031.19;;;21.59;91.91
42621;BME280;28252;53.336;-6.298;2023-01-26T02:12:41;103028.66;;;21.57;91.90
42621;BME280;28252;53.336;-6.298;2023-01-26T02:13:20;103031.47;;;21.56;92.05
42621;BME280;28252;53.336;-6.298;2023-01-26T02:13:54;103033.41;;;21.54;91.98
42621;BME280;28252;53.336;-6.298;2023-01-26T02:14:32;103029.72;;;21.55;91.82
42621;BME280;28252;53.336;-6.298;2023-01-26T02:15:06;103038.84;;;21.54;91.95
42621;BME280;28252;53.336;-6.298;2023-01-26T02:15:42;103033.41;;;21.54;91.81
42621;BME280;28252;53.336;-6.298;2023-01-26T02:16:17;103036.41;;;21.51;92.08
42621;BME280;28252;53.336;-6.298;2023-01-26T02:16:53;103042.56;;;21.53;92.01
42621;BME280;28252;53.336;-6.298;2023-01-26T02:17:24;103048.22;;;21.50;92.70
42621;BME280;28252;53.336;-6.298;2023-01-26T02:17:57;103045.50;;;21.50;92.10
42621;BME280;28252;53.336;-6.298;2023-01-26T02:18:37;103041.94;;;21.49;92.22
42621;BME280;28252;53.336;-6.298;2023-01-26T02:19:12;103031.94;;;21.50;92.23
42621;BME280;28252;53.336;-6.298;2023-01-26T02:21:17;103046.38;;;21.50;92.22
42621;BME280;28252;53.336;-6.298;2023-01-26T02:21:49;103041.94;;;21.49;92.16
42621;BME280;28252;53.336;-6.298;2023-01-26T02:23:05;103034.13;;;21.44;92.87
42621;BME280;28252;53.336;-6.298;2023-01-26T02:24:31;103035.88;;;21.45;92.36
42621;BME280;28252;53.336;-6.298;2023-01-26T02:25:10;103039.56;;;21.44;92.42
42621;BME280;28252;53.336;-6.298;2023-01-26T02:26:54;103038.94;;;21.41;92.56
42621;BME280;28252;53.336;-6.298;2023-01-26T02:27:25;103042.50;;;21.41;93.02
42621;BME280;28252;53.336;-6.298;2023-01-26T02:27:59;103042.63;;;21.40;92.75
42621;BME280;28252;53.336;-6.298;2023-01-26T02:28:35;103039.06;;;21.39;92.93
42621;BME280;28252;53.336;-6.298;2023-01-26T02:29:09;103045.34;;;21.40;92.27
42621;BME280;28252;53.336;-6.298;2023-01-26T02:29:47;103039.06;;;21.39;92.79
42621;BME280;28252;53.336;-6.298;2023-01-26T02:30:22;103034.59;;;21.38;93.06
42621;BME280;28252;53.336;-6.298;2023-01-26T02:30:55;103035.50;;;21.39;92.80
42621;BME280;28252;53.336;-6.298;2023-01-26T02:31:29;103037.47;;;21.37;93.17
42621;BME280;28252;53.336;-6.298;2023-01-26T02:32:04;103033.88;;;21.36;92.66
42621;BME280;28252;53.336;-6.298;2023-01-26T02:32:38;103038.31;;;21.37;92.43
42621;BME280;28252;53.336;-6.298;2023-01-26T02:33:20;103036.59;;;21.36;92.29
42621;BME280;28252;53.336;-6.298;2023-01-26T02:33:57;103031.16;;;21.36;92.38
42621;BME280;28252;53.336;-6.298;2023-01-26T02:34:28;103033.88;;;21.36;92.55
42621;BME280;28252;53.336;-6.298;2023-01-26T02:35:03;103034.88;;;21.35;92.65
42621;BME280;28252;53.336;-6.298;2023-01-26T02:35:36;103033.13;;;21.34;92.75
42621;BME280;28252;53.336;-6.298;2023-01-26T02:36:15;103032.28;;;21.34;92.68
42621;BME280;28252;53.336;-6.298;2023-01-26T02:36:58;103036.94;;;21.32;93.01
42621;BME280;28252;53.336;-6.298;2023-01-26T02:37:31;103037.81;;;21.32;93.26
42621;BME280;28252;53.336;-6.298;2023-01-26T02:38:06;103031.66;;;21.30;93.28
42621;BME280;28252;53.336;-6.298;2023-01-26T02:38:41;103040.78;;;21.29;92.87
42621;BME280;28252;53.336;-6.298;2023-01-26T02:39:40;103052.47;;;21.30;92.85
42621;BME280;28252;53.336;-6.298;2023-01-26T02:40:29;103050.00;;;21.26;93.18
42621;BME280;28252;53.336;-6.298;2023-01-26T02:41:10;103059.00;;;21.27;93.00
42621;BME280;28252;53.336;-6.298;2023-01-26T02:41:45;103064.44;;;21.27;92.93
42621;BME280;28252;53.336;-6.298;2023-01-26T02:42:36;103067.13;;;21.27;92.34
42621;BME280;28252;53.336;-6.298;2023-01-26T02:43:16;103060.84;;;21.26;92.96
42621;BME280;28252;53.336;-6.298;2023-01-26T02:43:47;103063.69;;;21.25;93.19
42621;BME280;28252;53.336;-6.298;2023-01-26T02:44:20;103064.66;;;21.24;93.02
42621;BME280;28252;53.336;-6.298;2023-01-26T02:44:53;103065.50;;;21.24;93.25
42621;BME280;28252;53.336;-6.298;2023-01-26T02:45:24;103058.28;;;21.25;92.72
42621;BME280;28252;53.336;-6.298;2023-01-26T02:46:01;103059.25;;;21.24;93.09
42621;BME280;28252;53.336;-6.298;2023-01-26T02:46:37;103068.09;;;21.26;92.70
42621;BME280;28252;53.336;-6.298;2023-01-26T02:47:12;103056.41;;;21.25;92.56
42621;BME280;28252;53.336;-6.298;2023-01-26T02:47:46;103058.13;;;21.26;92.04
42621;BME280;28252;53.336;-6.298;2023-01-26T02:48:20;103060.97;;;21.25;92.96
42621;BME280;28252;53.336;-6.298;2023-01-26T02:49:12;103053.81;;;21.24;92.42
42621;BME280;28252;53.336;-6.298;2023-01-26T02:50:02;103064.78;;;21.22;93.11
42621;BME280;28252;53.336;-6.298;2023-01-26T02:50:35;103061.22;;;21.22;92.60
42621;BME280;28252;53.336;-6.298;2023-01-26T02:51:09;103070.19;;;21.22;92.67
42621;BME280;28252;53.336;-6.298;2023-01-26T02:51:40;103059.47;;;21.21;93.18
42621;BME280;28252;53.336;-6.298;2023-01-26T02:52:21;103066.63;;;21.22;92.76
42621;BME280;28252;53.336;-6.298;2023-01-26T02:53:02;103064.03;;;21.20;92.86
42621;BME280;28252;53.336;-6.298;2023-01-26T02:53:34;103060.47;;;21.20;92.99
42621;BME280;28252;53.336;-6.298;2023-01-26T02:54:08;103057.88;;;21.18;92.73
42621;BME280;28252;53.336;-6.298;2023-01-26T02:55:03;103059.59;;;21.19;92.65
42621;BME280;28252;53.336;-6.298;2023-01-26T02:55:57;103058.72;;;21.19;92.89
42621;BME280;28252;53.336;-6.298;2023-01-26T02:56:33;103058.84;;;21.17;93.59
42621;BME280;28252;53.336;-6.298;2023-01-26T02:57:11;103058.97;;;21.16;93.04
42621;BME280;28252;53.336;-6.298;2023-01-26T02:57:45;103065.38;;;21.15;93.34
42621;BME280;28252;53.336;-6.298;2023-01-26T02:58:16;103053.78;;;21.13;93.28
42621;BME280;28252;53.336;-6.298;2023-01-26T02:58:47;103058.22;;;21.14;93.25
42621;BME280;28252;53.336;-6.298;2023-01-26T02:59:21;103056.50;;;21.13;93.31
42621;BME280;28252;53.336;-6.298;2023-01-26T02:59:54;103058.56;;;21.09;93.53
42621;BME280;28252;53.336;-6.298;2023-01-26T03:00:29;103059.47;;;21.10;93.92
42621;BME280;28252;53.336;-6.298;2023-01-26T03:01:01;103068.44;;;21.10;93.90
42621;BME280;28252;53.336;-6.298;2023-01-26T03:01:32;103062.03;;;21.11;94.22
42621;BME280;28252;53.336;-6.298;2023-01-26T03:02:10;103062.03;;;21.11;93.19
42621;BME280;28252;53.336;-6.298;2023-01-26T03:02:43;103058.34;;;21.12;92.97
42621;BME280;28252;53.336;-6.298;2023-01-26T03:03:24;103053.78;;;21.13;92.91
42621;BME280;28252;53.336;-6.298;2023-01-26T03:03:55;103054.66;;;21.13;93.39
42621;BME280;28252;53.336;-6.298;2023-01-26T03:04:29;103053.03;;;21.11;93.96
42621;BME280;28252;53.336;-6.298;2023-01-26T03:05:03;103055.88;;;21.09;93.21
42621;BME280;28252;53.336;-6.298;2023-01-26T03:05:34;103055.75;;;21.11;93.45
42621;BME280;28252;53.336;-6.298;2023-01-26T03:06:07;103050.44;;;21.09;93.27
42621;BME280;28252;53.336;-6.298;2023-01-26T03:06:41;103051.34;;;21.10;93.87
42621;BME280;28252;53.336;-6.298;2023-01-26T03:07:12;103052.41;;;21.07;93.40
42621;BME280;28252;53.336;-6.298;2023-01-26T03:07:43;103053.28;;;21.07;93.44
42621;BME280;28252;53.336;-6.298;2023-01-26T03:08:17;103050.69;;;21.06;94.03
42621;BME280;28252;53.336;-6.298;2023-01-26T03:08:52;103055.25;;;21.05;94.21
42621;BME280;28252;53.336;-6.298;2023-01-26T03:09:29;103052.75;;;21.02;94.08
42621;BME280;28252;53.336;-6.298;2023-01-26T03:10:00;103057.22;;;21.03;94.35
42621;BME280;28252;53.336;-6.298;2023-01-26T03:10:33;103053.53;;;21.04;93.60
42621;BME280;28252;53.336;-6.298;2023-01-26T03:11:07;103060.91;;;21.02;94.30
42621;BME280;28252;53.336;-6.298;2023-01-26T03:11:38;103055.47;;;21.02;93.50
42621;BME280;28252;53.336;-6.298;2023-01-26T03:12:15;103055.47;;;21.02;94.63